Time;durP1;ratioP1;P1;durP2;ratioP2;P2;SDS_P1;SDS_P2;PMS_P1;PMS_P2;Temp;Humidity;BMP_temperature;BMP_pressure;BME280_temperature;BME280_humidity;BME280_pressure;Samples;Min_cycle;Max_cycle;Signal;HPM_P1;HPM_P2
2021/11/26 00:00:12;;;;;;;15.48;6.65;;;;;;;3.43;100.00;99405.94;4983995;28;20057;-68
2021/11/26 00:02:57;;;;;;;15.55;6.50;;;;;;;3.48;100.00;99398.09;4987505;28;20053;-66
2021/11/26 00:05:42;;;;;;;10.30;5.90;;;;;;;3.43;100.00;99400.69;4984488;28;20053;-65
2021/11/26 00:08:26;;;;;;;12.55;6.65;;;;;;;3.41;100.00;99401.56;4991348;28;20049;-75
2021/11/26 00:11:11;;;;;;;10.53;5.40;;;;;;;3.43;100.00;99411.19;4986556;28;20068;-67
2021/11/26 00:14:17;;;;;;;12.80;5.68;;;;;;;3.43;100.00;99397.19;4969382;28;20293;-65
2021/11/26 00:17:04;;;;;;;14.13;7.35;;;;;;;3.40;100.00;99392.81;4985100;28;20422;-73
2021/11/26 00:19:49;;;;;;;16.40;6.65;;;;;;;3.41;100.00;99388.47;4987456;28;20565;-72
2021/11/26 00:22:34;;;;;;;10.13;5.97;;;;;;;3.40;100.00;99394.59;4996189;28;20101;-65
2021/11/26 00:25:19;;;;;;;11.10;5.82;;;;;;;3.35;100.00;99378.84;4985889;28;20152;-68
2021/11/26 00:28:04;;;;;;;8.10;5.68;;;;;;;3.36;100.00;99379.72;4986428;28;20320;-69
2021/11/26 00:30:48;;;;;;;12.27;6.67;;;;;;;3.29;100.00;99370.94;4986611;28;20108;-67
2021/11/26 00:33:33;;;;;;;9.88;5.05;;;;;;;3.32;100.00;99381.44;4994578;28;20296;-72
2021/11/26 00:36:18;;;;;;;10.77;6.82;;;;;;;3.34;100.00;99378.84;4982738;28;20671;-72
2021/11/26 00:39:04;;;;;;;10.63;6.27;;;;;;;3.40;100.00;99378.88;4983618;28;20469;-66
2021/11/26 00:41:49;;;;;;;13.25;6.38;;;;;;;3.34;100.00;99379.72;4982283;28;20292;-65
2021/11/26 00:44:33;;;;;;;8.43;5.10;;;;;;;3.34;100.00;99374.47;4976947;28;20450;-66
2021/11/26 00:47:18;;;;;;;10.82;6.82;;;;;;;3.41;100.00;99380.59;4986520;28;20615;-66
2021/11/26 00:50:04;;;;;;;13.63;7.18;;;;;;;3.37;100.00;99366.59;4989290;28;20048;-66
2021/11/26 00:52:49;;;;;;;11.80;7.65;;;;;;;3.37;100.00;99376.22;4983098;28;20426;-65
2021/11/26 00:55:35;;;;;;;10.35;7.38;;;;;;;3.42;100.00;99362.28;4997237;28;20101;-66
2021/11/26 00:58:20;;;;;;;8.45;5.50;;;;;;;3.43;100.00;99360.50;4985062;28;20460;-66
2021/11/26 01:01:04;;;;;;;12.63;7.65;;;;;;;3.50;100.00;99376.25;4981529;28;20069;-66
2021/11/26 01:03:49;;;;;;;9.63;6.32;;;;;;;3.51;100.00;99369.25;4983198;28;20121;-65
2021/11/26 01:06:34;;;;;;;12.98;7.22;;;;;;;3.48;100.00;99366.66;4987056;28;20108;-64
2021/11/26 01:09:18;;;;;;;10.85;6.80;;;;;;;3.43;100.00;99350.00;4984460;28;20466;-67
2021/11/26 01:12:04;;;;;;;8.07;5.68;;;;;;;3.48;100.00;99362.25;4982739;28;20046;-66
2021/11/26 01:14:48;;;;;;;11.70;6.47;;;;;;;3.52;100.00;99360.53;4982227;28;20515;-69
2021/11/26 01:17:33;;;;;;;10.10;6.70;;;;;;;3.52;100.00;99350.91;4985931;28;20140;-66
2021/11/26 01:20:23;;;;;;;12.27;7.13;;;;;;;3.57;100.00;99349.16;4982595;28;20097;-67
2021/11/26 01:23:08;;;;;;;12.35;6.55;;;;;;;3.53;100.00;99357.88;4984697;28;20116;-68
2021/11/26 01:25:54;;;;;;;11.38;6.30;;;;;;;3.51;100.00;99343.94;4986428;28;20072;-67
2021/11/26 01:28:38;;;;;;;9.27;6.35;;;;;;;3.54;100.00;99341.31;4971232;28;20181;-72
2021/11/26 01:31:24;;;;;;;12.50;6.85;;;;;;;3.55;100.00;99344.78;4984890;28;20093;-65
2021/11/26 01:34:09;;;;;;;11.02;6.90;;;;;;;3.57;100.00;99329.97;4969373;28;20462;-63
2021/11/26 01:36:55;;;;;;;11.05;7.18;;;;;;;3.53;100.00;99333.44;4974008;28;20093;-64
2021/11/26 01:39:39;;;;;;;12.27;6.97;;;;;;;3.54;100.00;99329.94;4967944;28;20912;-66
2021/11/26 01:42:24;;;;;;;11.48;7.15;;;;;;;3.56;100.00;99330.84;4983537;28;20174;-67
2021/11/26 01:45:10;;;;;;;9.52;5.15;;;;;;;3.40;100.00;99331.69;4987492;28;20130;-65
2021/11/26 01:47:55;;;;;;;11.43;6.53;;;;;;;3.44;100.00;99339.53;4985730;28;20470;-73
2021/11/26 01:50:43;;;;;;;11.85;6.85;;;;;;;3.48;100.00;99343.06;4990907;28;20068;-66
2021/11/26 01:53:28;;;;;;;10.95;7.20;;;;;;;3.54;100.00;99346.56;4979434;28;20064;-66
2021/11/26 01:56:12;;;;;;;11.45;6.72;;;;;;;3.49;100.00;99332.56;4984686;28;20721;-64
2021/11/26 01:58:58;;;;;;;12.68;7.65;;;;;;;3.48;100.00;99332.59;4985107;28;20089;-66
2021/11/26 02:01:43;;;;;;;12.20;7.53;;;;;;;3.43;100.00;99329.06;4987448;28;20199;-63
2021/11/26 02:04:27;;;;;;;12.50;7.85;;;;;;;3.43;100.00;99332.56;4989607;28;20049;-66
2021/11/26 02:07:13;;;;;;;11.35;5.85;;;;;;;3.43;100.00;99331.69;4985830;28;20542;-69
2021/11/26 02:09:57;;;;;;;11.25;7.00;;;;;;;3.45;100.00;99329.94;4984123;28;20058;-68
2021/11/26 02:12:42;;;;;;;10.88;7.50;;;;;;;3.44;100.00;99328.22;4982675;28;20049;-65
2021/11/26 02:15:29;;;;;;;13.85;7.68;;;;;;;3.47;100.00;99330.81;4985553;28;20485;-63
2021/11/26 02:18:16;;;;;;;11.60;7.22;;;;;;;3.50;100.00;99322.97;4999062;28;20057;-64
2021/11/26 02:21:00;;;;;;;12.88;6.82;;;;;;;3.51;100.00;99319.44;4992546;28;20161;-69
2021/11/26 02:23:47;;;;;;;14.18;8.10;;;;;;;3.51;100.00;99303.72;4967249;28;20114;-63
2021/11/26 02:26:41;;;;;;;11.82;7.57;;;;;;;3.38;100.00;99302.88;4975741;28;20101;-64
2021/11/26 02:29:26;;;;;;;12.63;7.38;;;;;;;3.43;100.00;99308.09;4985388;28;20096;-65
2021/11/26 02:32:11;;;;;;;12.60;6.97;;;;;;;3.32;100.00;99302.00;4985026;28;20179;-64
2021/11/26 02:34:56;;;;;;;15.90;8.13;;;;;;;3.33;100.00;99306.34;4983519;28;20555;-69
2021/11/26 02:37:42;;;;;;;13.40;8.38;;;;;;;3.39;100.00;99295.88;4986659;28;20046;-63
2021/11/26 02:40:29;;;;;;;16.80;9.48;;;;;;;3.43;100.00;99290.63;4983958;28;20052;-66
2021/11/26 02:43:15;;;;;;;13.63;8.65;;;;;;;3.34;100.00;99334.28;4970514;28;20054;-65
2021/11/26 02:45:59;;;;;;;13.68;7.45;;;;;;;3.27;100.00;99280.13;4986485;28;20093;-62
2021/11/26 02:48:44;;;;;;;13.30;6.95;;;;;;;3.31;100.00;99272.28;4984721;28;20053;-68
2021/11/26 02:51:29;;;;;;;12.35;7.53;;;;;;;3.34;100.00;99274.03;5004738;28;20412;-65
2021/11/26 02:54:13;;;;;;;19.05;9.32;;;;;;;3.28;100.00;99276.66;4988021;28;20510;-72
2021/11/26 02:56:58;;;;;;;16.42;8.23;;;;;;;3.29;100.00;99273.16;4985507;28;20501;-64
2021/11/26 02:59:42;;;;;;;17.20;9.25;;;;;;;3.31;100.00;99258.31;4982629;28;20418;-65
2021/11/26 03:02:27;;;;;;;14.10;7.45;;;;;;;3.30;100.00;99273.16;4984878;28;20180;-65
2021/11/26 03:05:13;;;;;;;16.45;8.77;;;;;;;3.38;100.00;99262.69;4985751;28;20078;-67
2021/11/26 03:07:58;;;;;;;17.27;9.48;;;;;;;3.33;100.00;99267.91;4987104;28;20128;-64
2021/11/26 03:10:43;;;;;;;12.80;7.88;;;;;;;3.26;100.00;99267.91;4989220;28;20088;-66
2021/11/26 03:13:28;;;;;;;14.60;8.32;;;;;;;3.31;100.00;99259.19;4987005;28;20049;-72
2021/11/26 03:16:13;;;;;;;14.55;8.82;;;;;;;3.34;100.00;99271.41;4987423;28;20052;-66
2021/11/26 03:18:58;;;;;;;16.60;7.57;;;;;;;3.31;100.00;99256.56;4986313;28;20085;-66
2021/11/26 03:21:43;;;;;;;17.25;9.02;;;;;;;3.28;100.00;99263.56;4972774;28;20143;-65
2021/11/26 03:24:27;;;;;;;16.88;8.65;;;;;;;3.14;100.00;99246.94;4986703;28;20865;-64
2021/11/26 03:27:12;;;;;;;16.85;8.93;;;;;;;3.18;100.00;99252.22;4986710;28;20116;-68
2021/11/26 03:29:56;;;;;;;14.02;9.02;;;;;;;3.17;100.00;99237.34;4987722;28;20093;-65
2021/11/26 03:32:41;;;;;;;14.18;9.18;;;;;;;3.25;100.00;99238.22;4987073;28;20053;-73
2021/11/26 03:35:28;;;;;;;13.77;7.72;;;;;;;3.22;100.00;99227.75;4979167;28;20490;-67
2021/11/26 03:38:13;;;;;;;17.80;9.15;;;;;;;3.27;100.00;99228.63;4998797;28;20450;-67
2021/11/26 03:40:57;;;;;;;16.83;8.45;;;;;;;3.18;100.00;99226.00;4987129;28;20065;-65
2021/11/26 03:43:42;;;;;;;17.83;9.20;;;;;;;3.23;100.00;99215.53;4987727;28;20430;-67
2021/11/26 03:46:26;;;;;;;14.13;8.93;;;;;;;3.11;100.00;99203.31;4986676;28;20061;-67
2021/11/26 03:49:10;;;;;;;13.57;8.70;;;;;;;3.17;100.00;99216.38;4986270;28;20113;-69
2021/11/26 03:51:55;;;;;;;18.35;10.57;;;;;;;3.12;100.00;99214.63;4987143;28;20049;-68
2021/11/26 03:54:41;;;;;;;16.95;8.95;;;;;;;3.14;100.00;99212.91;4986652;28;20109;-65
2021/11/26 03:57:27;;;;;;;20.25;10.77;;;;;;;3.20;100.00;99212.88;4984323;28;20502;-69
2021/11/26 04:00:13;;;;;;;;;;;;;;;3.22;100.00;99209.44;4985252;28;20141;-66
2021/11/26 04:02:58;;;;;;;20.27;10.90;;;;;;;3.23;100.00;99221.63;4986062;28;20055;-74
2021/11/26 04:05:43;;;;;;;15.93;9.82;;;;;;;3.16;100.00;99219.00;4993909;28;20115;-62
2021/11/26 04:08:28;;;;;;;20.50;11.23;;;;;;;3.19;100.00;99209.41;4970887;28;20054;-67
2021/11/26 04:11:12;;;;;;;20.23;10.93;;;;;;;3.07;100.00;99198.94;4982787;28;20057;-79
2021/11/26 04:13:57;;;;;;;22.85;11.52;;;;;;;3.04;100.00;99214.63;4985543;28;20537;-67
2021/11/26 04:16:41;;;;;;;23.33;12.90;;;;;;;3.09;100.00;99225.13;4962581;28;20141;-67
2021/11/26 04:19:26;;;;;;;13.40;8.80;;;;;;;3.07;100.00;99209.41;4983935;28;20049;-76
2021/11/26 04:22:11;;;;;;;19.70;10.30;;;;;;;3.03;100.00;99197.19;4984658;28;20057;-70
2021/11/26 04:24:55;;;;;;;21.58;10.48;;;;;;;3.17;100.00;99200.66;4986005;28;20073;-66
2021/11/26 04:27:41;;;;;;;21.10;11.27;;;;;;;3.18;100.00;99198.94;4985687;28;20104;-67
2021/11/26 04:30:28;;;;;;;19.23;10.68;;;;;;;3.18;100.00;99198.94;4986085;28;20054;-72
2021/11/26 04:33:12;;;;;;;16.10;10.13;;;;;;;3.07;100.00;99211.16;4986543;28;20049;-69
2021/11/26 04:35:57;;;;;;;15.70;9.55;;;;;;;3.11;100.00;99199.81;4982768;28;20095;-68
2021/11/26 04:38:42;;;;;;;17.00;9.07;;;;;;;2.98;100.00;99193.72;4986335;28;20054;-67
2021/11/26 04:41:27;;;;;;;17.45;9.63;;;;;;;3.07;100.00;99232.97;4997178;28;20906;-65
2021/11/26 04:44:12;;;;;;;21.15;10.35;;;;;;;2.98;100.00;99209.41;4983705;28;20081;-67
2021/11/26 04:46:57;;;;;;;16.75;9.48;;;;;;;2.98;100.00;99221.63;4985301;28;20060;-67
2021/11/26 04:49:42;;;;;;;14.52;9.20;;;;;;;2.97;100.00;99207.66;4982494;28;20065;-67
2021/11/26 04:52:30;;;;;;;15.45;8.77;;;;;;;2.95;100.00;99235.59;4984065;28;20057;-68
2021/11/26 04:55:17;;;;;;;20.13;9.32;;;;;;;2.97;100.00;99231.22;4996699;28;20105;-67
2021/11/26 04:58:01;;;;;;;15.95;8.88;;;;;;;2.94;100.00;99217.25;4992516;28;20053;-71
2021/11/26 05:00:46;;;;;;;18.20;9.75;;;;;;;2.99;100.00;99212.88;4985937;28;20057;-68
2021/11/26 05:03:32;;;;;;;16.65;9.93;;;;;;;3.07;100.00;99216.38;4983912;28;20053;-72
2021/11/26 05:06:18;;;;;;;17.35;10.43;;;;;;;3.01;100.00;99219.88;4983419;28;20049;-67
2021/11/26 05:09:07;;;;;;;16.38;9.77;;;;;;;3.13;100.00;99211.16;4982995;28;20101;-67
2021/11/26 05:11:54;;;;;;;16.83;9.70;;;;;;;3.06;100.00;99231.25;4985732;28;20391;-64
2021/11/26 05:14:39;;;;;;;18.10;10.05;;;;;;;3.13;100.00;99221.63;4985124;28;20584;-63
2021/11/26 05:17:23;;;;;;;17.63;9.63;;;;;;;3.12;100.00;99215.53;4985232;28;20053;-72
2021/11/26 05:20:11;;;;;;;15.05;8.20;;;;;;;3.17;100.00;99223.38;4973777;28;20057;-70
2021/11/26 05:22:56;;;;;;;14.50;9.05;;;;;;;3.14;100.00;99216.41;4983513;28;20108;-66
2021/11/26 05:25:41;;;;;;;15.85;9.10;;;;;;;3.24;100.00;99222.53;4984974;28;20375;-65
2021/11/26 05:28:26;;;;;;;16.93;9.53;;;;;;;3.07;100.00;99206.78;4985212;28;20101;-66
2021/11/26 05:31:11;;;;;;;13.57;8.70;;;;;;;3.16;100.00;99232.97;4972381;28;20301;-64
2021/11/26 05:33:55;;;;;;;19.73;9.63;;;;;;;3.10;100.00;99216.41;4982839;28;20049;-65
2021/11/26 05:36:40;;;;;;;16.63;8.95;;;;;;;3.16;100.00;99195.44;4982653;28;20053;-73
2021/11/26 05:39:25;;;;;;;12.27;8.10;;;;;;;3.11;100.00;99212.91;4977568;28;20053;-63
2021/11/26 05:42:10;;;;;;;14.48;8.13;;;;;;;3.11;100.00;99195.44;4980399;28;20561;-65
2021/11/26 05:44:55;;;;;;;15.10;9.10;;;;;;;3.09;100.00;99189.31;4994899;28;20088;-68
2021/11/26 05:47:40;;;;;;;16.85;9.65;;;;;;;3.18;100.00;99183.22;4982441;28;20068;-66
2021/11/26 05:50:25;;;;;;;15.48;8.90;;;;;;;3.15;100.00;99183.22;4983088;28;20054;-65
2021/11/26 05:53:10;;;;;;;15.98;9.82;;;;;;;3.17;100.00;99160.53;4969165;28;20057;-66
2021/11/26 05:55:59;;;;;;;19.50;9.70;;;;;;;3.17;100.00;99181.47;4981353;28;20065;-63
2021/11/26 05:58:44;;;;;;;15.18;9.48;;;;;;;3.26;100.00;99174.50;4982620;28;20112;-65
2021/11/26 06:01:28;;;;;;;15.20;8.65;;;;;;;3.24;100.00;99175.38;4982480;28;20057;-63
2021/11/26 06:04:13;;;;;;;13.82;7.85;;;;;;;3.17;100.00;99161.38;4985206;28;20533;-65
2021/11/26 06:06:59;;;;;;;14.52;7.93;;;;;;;3.17;100.00;99169.25;4982727;28;20068;-65
2021/11/26 06:09:44;;;;;;;15.73;8.77;;;;;;;3.24;100.00;99171.00;4983402;28;20045;-65
2021/11/26 06:12:29;;;;;;;14.70;7.78;;;;;;;3.21;100.00;99172.75;4984053;28;20077;-65
2021/11/26 06:15:16;;;;;;;16.45;9.60;;;;;;;3.23;100.00;99156.16;4966318;28;20052;-73
2021/11/26 06:18:01;;;;;;;15.60;8.85;;;;;;;3.10;100.00;99164.91;4982200;28;20137;-65
2021/11/26 06:20:46;;;;;;;18.42;9.63;;;;;;;3.09;100.00;99165.75;4981941;28;20057;-68
2021/11/26 06:23:30;;;;;;;21.35;10.20;;;;;;;3.12;100.00;99144.81;4997459;28;20049;-68
2021/11/26 06:26:15;;;;;;;12.05;8.00;;;;;;;3.12;100.00;99157.03;4982777;28;20073;-67
2021/11/26 06:28:59;;;;;;;17.08;9.40;;;;;;;3.16;100.00;99164.88;4982682;28;20142;-68
2021/11/26 06:31:44;;;;;;;14.98;9.43;;;;;;;3.22;100.00;99161.38;4994955;28;20520;-66
2021/11/26 06:34:28;;;;;;;15.73;8.55;;;;;;;3.22;100.00;99164.00;4982058;28;20048;-74
2021/11/26 06:37:12;;;;;;;14.45;8.20;;;;;;;3.17;100.00;99136.97;4977956;28;20053;-64
2021/11/26 06:39:57;;;;;;;16.77;10.15;;;;;;;3.23;100.00;99132.59;4984591;28;20088;-66
2021/11/26 06:42:42;;;;;;;18.23;10.82;;;;;;;3.26;100.00;99129.97;4985679;28;20073;-66
2021/11/26 06:45:27;;;;;;;18.73;10.00;;;;;;;3.29;100.00;99143.03;4999566;28;20226;-68
2021/11/26 06:48:11;;;;;;;12.55;7.72;;;;;;;3.19;100.00;99161.38;4987580;28;20462;-65
2021/11/26 06:50:56;;;;;;;20.02;9.57;;;;;;;3.25;100.00;99158.78;4986563;28;20069;-68
2021/11/26 06:53:40;;;;;;;18.30;9.38;;;;;;;3.36;100.00;99164.88;4984772;28;20049;-73
2021/11/26 06:56:25;;;;;;;17.53;9.40;;;;;;;3.36;100.00;99152.63;4985965;28;20065;-68
2021/11/26 06:59:10;;;;;;;16.33;9.32;;;;;;;3.38;100.00;99164.00;4971050;28;20348;-67
2021/11/26 07:01:55;;;;;;;14.95;7.47;;;;;;;3.37;100.00;99153.53;4987935;28;20541;-64
2021/11/26 07:04:43;;;;;;;14.18;8.20;;;;;;;3.41;100.00;99160.50;4997337;28;20049;-66
2021/11/26 07:07:29;;;;;;;12.82;7.05;;;;;;;3.34;100.00;99154.41;4979427;28;20053;-65
2021/11/26 07:10:14;;;;;;;13.68;8.30;;;;;;;3.39;100.00;99146.53;4986402;28;20525;-65
2021/11/26 07:12:59;;;;;;;17.42;8.80;;;;;;;3.48;100.00;99159.63;4986696;28;20449;-65
2021/11/26 07:15:43;;;;;;;14.50;8.83;;;;;;;3.53;100.00;99150.84;4987807;28;20101;-67
2021/11/26 07:18:28;;;;;;;13.88;8.27;;;;;;;3.50;100.00;99160.47;4984835;28;20336;-66
2021/11/26 07:21:12;;;;;;;12.73;7.68;;;;;;;3.52;100.00;99154.34;4985137;28;20061;-67
2021/11/26 07:23:57;;;;;;;16.80;8.40;;;;;;;3.53;100.00;99155.25;4986472;28;20073;-64
2021/11/26 07:26:42;;;;;;;15.23;8.95;;;;;;;3.54;100.00;99165.72;4999051;28;20077;-65
2021/11/26 07:29:26;;;;;;;15.57;7.97;;;;;;;3.64;100.00;99162.19;4986059;28;20402;-68
2021/11/26 07:32:11;;;;;;;13.10;8.20;;;;;;;3.58;100.00;99166.59;4986181;28;20581;-72
2021/11/26 07:34:56;;;;;;;14.75;8.75;;;;;;;3.57;100.00;99162.22;4986676;28;20126;-69
2021/11/26 07:37:42;;;;;;;12.40;7.72;;;;;;;3.65;100.00;99158.69;4985748;28;20471;-66
2021/11/26 07:40:27;;;;;;;17.23;7.88;;;;;;;3.69;100.00;99157.81;4986168;28;20445;-66
2021/11/26 07:43:12;;;;;;;15.40;8.15;;;;;;;3.66;100.00;99144.72;4972746;28;20962;-67
2021/11/26 07:45:58;;;;;;;14.75;7.28;;;;;;;3.71;100.00;99153.44;4986568;28;20100;-66
2021/11/26 07:48:43;;;;;;;15.77;8.90;;;;;;;3.69;100.00;99149.09;4960891;28;20408;-67
2021/11/26 07:51:28;;;;;;;16.05;7.93;;;;;;;3.71;100.00;99142.97;4984700;28;20120;-71
2021/11/26 07:54:13;;;;;;;11.82;7.68;;;;;;;3.70;100.00;99148.19;4986811;28;20556;-66
2021/11/26 07:56:58;;;;;;;12.60;8.20;;;;;;;3.73;100.00;99137.72;4981262;28;20418;-64
2021/11/26 07:59:42;;;;;;;13.18;7.30;;;;;;;3.73;100.00;99156.06;4985739;28;20493;-64
2021/11/26 08:02:27;;;;;;;14.30;8.68;;;;;;;3.71;100.00;99142.97;4988282;28;20301;-67
2021/11/26 08:05:12;;;;;;;14.30;7.45;;;;;;;3.81;100.00;99147.28;4984620;28;20100;-67
2021/11/26 08:07:58;;;;;;;14.65;8.52;;;;;;;3.76;100.00;99125.47;4985387;28;20493;-65
2021/11/26 08:10:43;;;;;;;12.52;7.05;;;;;;;3.82;100.00;99120.22;4982710;28;20148;-70
2021/11/26 08:13:28;;;;;;;13.57;7.75;;;;;;;3.83;100.00;99111.44;4986302;28;20517;-76
2021/11/26 08:16:15;;;;;;;13.50;7.18;;;;;;;3.82;100.00;99103.59;4983823;28;20129;-67
2021/11/26 08:18:59;;;;;;;14.13;8.63;;;;;;;3.87;100.00;99105.31;4987408;28;20073;-73
2021/11/26 08:21:44;;;;;;;;;;;;;;;3.92;100.00;99100.06;4983359;28;20112;-69
2021/11/26 08:24:29;;;;;;;15.35;7.53;;;;;;;3.90;100.00;99089.59;4984805;28;19924;-67
2021/11/26 08:27:14;;;;;;;;;;;;;;;4.03;100.00;99099.13;4984721;28;20097;-66
2021/11/26 08:29:59;;;;;;;15.02;7.00;;;;;;;3.98;100.00;99089.53;4981813;28;19964;-69
2021/11/26 08:32:44;;;;;;;16.15;8.88;;;;;;;4.06;100.00;99091.25;4984869;28;20065;-70
2021/11/26 08:35:29;;;;;;;14.18;7.85;;;;;;;3.99;100.00;99086.03;4995099;28;20154;-66
2021/11/26 08:38:14;;;;;;;14.45;7.88;;;;;;;3.93;100.00;99093.94;4978988;28;20536;-68
2021/11/26 08:40:58;;;;;;;14.07;7.95;;;;;;;4.05;100.00;99080.75;4987942;28;20073;-69
2021/11/26 08:43:43;;;;;;;13.02;6.95;;;;;;;4.11;100.00;99085.97;4982400;28;20461;-66
2021/11/26 08:46:29;;;;;;;11.43;6.72;;;;;;;3.98;100.00;99068.56;4985690;28;20053;-65
2021/11/26 08:49:15;;;;;;;14.73;7.72;;;;;;;3.99;100.00;99071.16;4983381;28;20580;-67
2021/11/26 08:51:59;;;;;;;10.73;5.70;;;;;;;3.96;100.00;99097.41;4986214;28;20064;-65
2021/11/26 08:54:44;;;;;;;;;;;;;;;3.96;100.00;99075.56;4979468;28;20521;-64
2021/11/26 08:57:30;;;;;;;15.05;7.45;;;;;;;3.94;100.00;99069.44;4983925;28;19972;-65
2021/11/26 09:00:16;;;;;;;14.10;7.47;;;;;;;4.02;100.00;99070.28;4994749;28;20054;-68
2021/11/26 09:03:03;;;;;;;13.93;6.82;;;;;;;3.97;100.00;99061.56;4984697;28;20085;-78
2021/11/26 09:05:48;;;;;;;10.43;6.22;;;;;;;3.97;100.00;99059.84;4992943;28;20057;-66
2021/11/26 09:08:33;;;;;;;14.25;7.53;;;;;;;3.92;100.00;99066.81;4982648;28;20526;-69
2021/11/26 09:11:18;;;;;;;16.38;6.90;;;;;;;3.97;100.00;99090.41;4985340;28;20141;-67
2021/11/26 09:14:05;;;;;;;;;;;;;;;3.97;100.00;99051.09;4997853;28;21238;-66
2021/11/26 09:16:50;;;;;;;12.10;7.15;;;;;;;3.90;100.00;99065.09;4977822;28;19976;-70
2021/11/26 09:19:35;;;;;;;;;;;;;;;3.95;100.00;99089.53;4981478;28;20072;-69
2021/11/26 09:22:20;;;;;;;18.58;7.38;;;;;;;3.85;100.00;99066.88;4986274;28;19933;-74
2021/11/26 09:25:06;;;;;;;10.55;5.63;;;;;;;3.83;100.00;99066.00;4998179;28;20105;-70
2021/11/26 09:27:51;;;;;;;13.13;6.25;;;;;;;3.82;100.00;99064.25;4982378;28;20062;-64
2021/11/26 09:30:37;;;;;;;10.00;5.90;;;;;;;3.85;100.00;99072.13;4984065;28;20065;-66
2021/11/26 09:33:23;;;;;;;14.82;6.43;;;;;;;3.85;100.00;99046.78;4984608;28;20053;-63
2021/11/26 09:36:10;;;;;;;11.95;6.72;;;;;;;3.88;100.00;99044.13;4983084;28;20108;-75
2021/11/26 09:38:55;;;;;;;13.05;6.47;;;;;;;3.86;100.00;99039.78;4982718;28;20053;-68
2021/11/26 09:41:40;;;;;;;13.10;7.10;;;;;;;3.81;100.00;99049.41;4982558;28;20061;-68
2021/11/26 09:44:25;;;;;;;12.25;6.68;;;;;;;3.92;100.00;99045.00;4984283;28;20053;-64
2021/11/26 09:47:10;;;;;;;17.48;8.43;;;;;;;3.98;100.00;99058.06;4985220;28;20183;-69
2021/11/26 09:49:57;;;;;;;14.68;7.40;;;;;;;3.84;100.00;99068.63;4982575;28;20084;-67
2021/11/26 09:52:43;;;;;;;12.90;6.95;;;;;;;3.88;100.00;99080.84;4984750;28;20754;-65
2021/11/26 09:55:30;;;;;;;13.13;7.20;;;;;;;3.85;100.00;99077.38;4984742;28;20104;-68
2021/11/26 09:58:18;;;;;;;12.23;7.40;;;;;;;3.82;100.00;99073.00;4984122;28;20097;-59
2021/11/26 10:01:07;;;;;;;16.17;6.95;;;;;;;3.83;100.00;99064.25;4985468;28;20057;-70
2021/11/26 10:03:54;;;;;;;11.60;6.75;;;;;;;3.79;100.00;99075.63;4983035;28;20069;-59
2021/11/26 10:06:41;;;;;;;13.60;7.53;;;;;;;3.73;100.00;99074.81;4982632;28;20088;-69
2021/11/26 10:09:26;;;;;;;13.90;7.05;;;;;;;3.62;100.00;99066.97;4982766;28;20528;-63
2021/11/26 10:12:14;;;;;;;13.35;7.15;;;;;;;3.69;100.00;99065.19;4984245;28;20557;-65
2021/11/26 10:14:59;;;;;;;16.23;8.40;;;;;;;3.77;100.00;99061.66;4986228;28;20309;-63
2021/11/26 10:17:43;;;;;;;14.05;7.78;;;;;;;3.76;100.00;99074.78;4986941;28;20129;-61
2021/11/26 10:20:28;;;;;;;13.00;6.93;;;;;;;3.72;100.00;99063.44;4987746;28;20619;-58
2021/11/26 10:23:18;;;;;;;17.92;6.63;;;;;;;3.73;100.00;99064.31;5001040;28;20377;-67
2021/11/26 10:26:14;;;;;;;12.85;7.75;;;;;;;3.66;100.00;99052.09;4989140;28;20144;-65
2021/11/26 10:29:04;;;;;;;14.10;7.40;;;;;;;3.72;100.00;99066.06;4987517;28;20519;-66
2021/11/26 10:31:49;;;;;;;14.05;7.88;;;;;;;3.74;100.00;99060.81;4977397;28;20058;-70
2021/11/26 10:34:35;;;;;;;13.55;7.28;;;;;;;3.76;100.00;99056.44;4985511;28;20138;-65
2021/11/26 10:37:25;;;;;;;15.73;7.90;;;;;;;3.78;100.00;99060.78;4985097;28;20421;-63
2021/11/26 10:40:19;;;;;;;13.70;7.68;;;;;;;3.75;100.00;99054.69;4987138;28;20151;-68
2021/11/26 10:43:10;;;;;;;19.20;6.60;;;;;;;3.70;100.00;99062.59;4988376;28;20050;-64
2021/11/26 10:58:00;;;;;;;13.02;7.07;;;;;;;3.69;100.00;99068.69;4986071;28;20064;-68
2021/11/26 11:00:46;;;;;;;13.98;6.72;;;;;;;3.74;100.00;99059.06;4973217;28;20069;-68
2021/11/26 11:03:31;;;;;;;15.55;7.05;;;;;;;3.71;100.00;99072.19;4989252;28;20540;-62
2021/11/26 11:06:22;;;;;;;15.55;8.68;;;;;;;3.75;100.00;99062.53;4983153;28;20412;-67
2021/11/26 11:09:11;;;;;;;15.77;8.63;;;;;;;3.74;100.00;99068.66;4986551;28;20565;-67
2021/11/26 11:11:56;;;;;;;17.30;7.35;;;;;;;3.67;100.00;99067.81;4986986;28;20058;-64
2021/11/26 11:14:58;;;;;;;19.45;9.10;;;;;;;3.74;100.00;99066.03;4983606;28;20165;-66
2021/11/26 11:17:46;;;;;;;21.20;8.40;;;;;;;3.81;100.00;99073.03;4977632;28;20115;-67
2021/11/26 11:20:34;;;;;;;22.77;7.13;;;;;;;3.81;100.00;99065.16;4998893;28;20568;-72
2021/11/26 11:23:20;;;;;;;20.60;8.15;;;;;;;3.82;100.00;99075.63;4998296;28;20053;-66
2021/11/26 11:26:06;;;;;;;15.32;7.78;;;;;;;3.75;100.00;99073.03;4986114;28;20553;-67
2021/11/26 11:28:51;;;;;;;20.08;8.10;;;;;;;3.76;100.00;99065.16;4999757;28;20058;-65
2021/11/26 11:31:41;;;;;;;16.50;7.90;;;;;;;3.83;100.00;99077.38;4987301;28;20530;-68
2021/11/26 11:34:29;;;;;;;20.33;9.15;;;;;;;3.78;100.00;99070.41;4986173;28;20503;-66
2021/11/26 11:37:18;;;;;;;19.77;8.73;;;;;;;3.91;100.00;99075.59;4984979;28;20057;-68
2021/11/26 11:40:09;;;;;;;20.65;8.68;;;;;;;3.87;100.00;99070.34;4994640;28;20481;-71
2021/11/26 11:43:06;;;;;;;14.77;8.05;;;;;;;3.99;100.00;99089.53;4971733;28;20060;-64
2021/11/26 11:46:01;;;;;;;12.80;7.57;;;;;;;3.88;100.00;99079.97;4985282;28;20056;-67
2021/11/26 11:48:52;;;;;;;19.40;9.27;;;;;;;3.89;100.00;99085.22;4985742;28;20474;-73
2021/11/26 11:51:46;;;;;;;16.00;7.88;;;;;;;3.87;100.00;99093.94;4981855;28;20080;-66
2021/11/26 11:54:47;;;;;;;16.67;8.15;;;;;;;3.85;100.00;99082.63;4998770;28;20119;-67
2021/11/26 11:57:38;;;;;;;15.60;8.27;;;;;;;3.86;100.00;99086.97;4973731;28;20070;-67
2021/11/26 12:00:28;;;;;;;16.75;9.20;;;;;;;3.97;100.00;99083.44;4985216;28;20092;-66
2021/11/26 12:03:17;;;;;;;18.98;8.93;;;;;;;3.99;100.00;99094.78;4983163;28;20061;-65
2021/11/26 12:06:04;;;;;;;13.05;7.18;;;;;;;3.91;100.00;99093.06;4984460;28;20096;-65
2021/11/26 12:08:54;;;;;;;16.73;9.38;;;;;;;3.97;100.00;99106.16;4984165;28;20540;-64
2021/11/26 12:11:40;;;;;;;16.52;7.45;;;;;;;3.95;100.00;99102.66;4983723;28;20168;-64
2021/11/26 12:14:25;;;;;;;16.45;8.45;;;;;;;4.01;100.00;99098.28;4984400;28;20121;-72
2021/11/26 12:17:17;;;;;;;16.23;8.23;;;;;;;3.90;100.00;99102.69;4970576;28;20718;-71
2021/11/26 12:20:10;;;;;;;16.15;7.95;;;;;;;3.94;100.00;99109.66;4959852;28;20058;-69
2021/11/26 12:23:03;;;;;;;19.23;8.25;;;;;;;3.98;100.00;99114.03;4997802;28;20134;-69
2021/11/26 12:29:03;;;;;;;11.40;6.38;;;;;;;3.91;100.00;99106.16;4970204;28;20148;-66
2021/11/26 12:31:51;;;;;;;16.52;7.80;;;;;;;3.71;100.00;99087.03;4945375;28;20104;-67
2021/11/26 12:34:43;;;;;;;16.58;9.02;;;;;;;3.96;100.00;99109.66;4921731;28;20097;-67
2021/11/26 12:37:33;;;;;;;14.85;8.90;;;;;;;4.02;100.00;99107.00;4982498;28;20062;-70
2021/11/26 12:40:18;;;;;;;17.42;9.25;;;;;;;3.96;100.00;99121.00;4972134;28;20110;-65
2021/11/26 12:43:04;;;;;;;19.85;10.48;;;;;;;4.00;100.00;99109.63;4970804;28;20177;-68
2021/11/26 12:45:50;;;;;;;23.42;10.07;;;;;;;3.92;100.00;99127.13;4969236;28;20061;-67
2021/11/26 12:48:45;;;;;;;18.58;9.63;;;;;;;3.95;100.00;99106.16;4986894;28;20581;-72
2021/11/26 12:51:35;;;;;;;15.80;9.45;;;;;;;3.97;100.00;99117.53;4968739;28;20092;-69
2021/11/26 12:54:28;;;;;;;20.92;9.98;;;;;;;3.99;100.00;99117.50;4979673;28;20077;-66
2021/11/26 12:57:27;;;;;;;17.95;9.60;;;;;;;3.99;100.00;99139.34;4978831;28;20140;-71
2021/11/26 13:00:12;;;;;;;22.38;10.70;;;;;;;3.97;100.00;99129.75;4983369;28;20426;-66
2021/11/26 13:03:08;;;;;;;;;;;;;;;4.00;100.00;99130.59;4967214;28;20133;-67
2021/11/26 13:05:57;;;;;;;19.20;9.70;;;;;;;3.98;100.00;99134.13;4966768;28;19964;-68
2021/11/26 13:08:42;;;;;;;17.75;9.00;;;;;;;3.92;100.00;99140.25;4998317;28;20057;-67